createdAt,value
2017-08-25T00:00:24.892Z,0
2017-08-25T00:01:05.349Z,0
2017-08-25T00:01:45.798Z,0
2017-08-25T00:02:26.258Z,0
2017-08-25T00:03:06.714Z,0
2017-08-25T00:03:47.169Z,0
2017-08-25T00:06:05.106Z,0
2017-08-25T00:06:45.560Z,0
2017-08-25T00:07:26.012Z,0
2017-08-25T00:08:06.463Z,0
2017-08-25T00:08:46.918Z,0
2017-08-25T00:09:27.375Z,0
2017-08-25T00:10:07.818Z,0
2017-08-25T00:10:48.270Z,0
2017-08-25T00:11:28.725Z,0
2017-08-25T00:12:09.184Z,0
2017-08-25T00:12:49.642Z,0
2017-08-25T00:13:30.092Z,0
2017-08-25T00:14:10.544Z,0
2017-08-25T00:14:50.997Z,0
2017-08-25T00:15:31.454Z,0
2017-08-25T00:16:11.908Z,0
2017-08-25T00:16:52.362Z,0
2017-08-25T00:17:32.827Z,0
2017-08-25T00:18:13.295Z,0
2017-08-25T00:18:53.749Z,0
2017-08-25T00:19:34.204Z,0
2017-08-25T00:20:14.659Z,0
2017-08-25T00:20:55.115Z,0
2017-08-25T00:21:35.561Z,0
2017-08-25T00:22:16.014Z,0
2017-08-25T00:22:56.470Z,0
2017-08-25T00:23:36.923Z,0
2017-08-25T00:24:17.372Z,0
2017-08-25T00:24:57.831Z,0
2017-08-25T00:25:38.289Z,0
2017-08-25T00:26:18.739Z,0
2017-08-25T00:26:59.184Z,0
2017-08-25T00:27:39.642Z,0
2017-08-25T00:28:20.095Z,0
2017-08-25T00:29:00.557Z,0
2017-08-25T00:29:40.997Z,0
2017-08-25T00:30:21.458Z,0
2017-08-25T00:31:01.911Z,0
2017-08-25T00:31:42.363Z,0
2017-08-25T00:32:22.814Z,0
2017-08-25T00:33:03.272Z,0
2017-08-25T00:33:43.730Z,0
2017-08-25T00:34:24.180Z,0
2017-08-25T00:35:04.642Z,0
2017-08-25T00:35:45.087Z,0
2017-08-25T00:36:25.538Z,0
2017-08-25T00:37:05.987Z,0
2017-08-25T00:37:46.445Z,0
2017-08-25T00:38:26.901Z,0
2017-08-25T00:39:07.362Z,0
2017-08-25T00:39:47.822Z,0
2017-08-25T00:40:28.269Z,0
2017-08-25T00:41:08.738Z,0
2017-08-25T00:41:49.188Z,0
2017-08-25T00:42:29.641Z,0
2017-08-25T00:43:10.110Z,0
2017-08-25T00:43:50.569Z,0
2017-08-25T00:44:31.025Z,0
2017-08-25T00:45:11.472Z,0
2017-08-25T00:45:51.923Z,0
2017-08-25T00:46:32.380Z,0
2017-08-25T00:47:12.842Z,0
2017-08-25T00:47:53.296Z,0
2017-08-25T00:48:33.750Z,0
2017-08-25T00:49:14.201Z,0
2017-08-25T00:49:54.669Z,0
2017-08-25T00:50:35.128Z,0
2017-08-25T00:51:15.572Z,0
2017-08-25T00:51:56.026Z,0
2017-08-25T00:52:36.501Z,0
2017-08-25T00:53:16.949Z,0
2017-08-25T00:53:57.409Z,0
2017-08-25T00:54:37.860Z,0
2017-08-25T00:55:18.312Z,0
2017-08-25T00:55:58.766Z,0
2017-08-25T00:56:39.223Z,0
2017-08-25T00:57:19.663Z,0
2017-08-25T00:58:00.111Z,0
2017-08-25T00:58:40.570Z,0
2017-08-25T00:59:21.055Z,0
2017-08-25T01:00:01.510Z,0
2017-08-25T01:00:41.972Z,0
2017-08-25T01:01:22.423Z,0
2017-08-25T01:02:02.856Z,0
2017-08-25T01:02:43.308Z,0
2017-08-25T01:03:23.766Z,0
2017-08-25T01:04:04.196Z,0
2017-08-25T01:04:44.655Z,0
2017-08-25T01:05:25.109Z,0
2017-08-25T01:06:05.568Z,0
2017-08-25T01:06:46.016Z,0
2017-08-25T01:07:26.468Z,0
2017-08-25T01:08:06.925Z,0
2017-08-25T01:08:47.385Z,0
2017-08-25T01:09:27.842Z,0
2017-08-25T01:10:08.284Z,0
2017-08-25T01:10:48.739Z,0
2017-08-25T01:11:29.190Z,0
2017-08-25T01:12:09.645Z,0
2017-08-25T01:12:50.100Z,0
2017-08-25T01:13:30.565Z,0
2017-08-25T01:14:11.019Z,0
2017-08-25T01:14:51.473Z,0
2017-08-25T01:15:31.935Z,0
2017-08-25T01:16:12.394Z,0
2017-08-25T01:16:52.849Z,0
2017-08-25T01:17:33.310Z,0
2017-08-25T01:18:13.766Z,0
2017-08-25T01:18:54.222Z,0
2017-08-25T01:19:34.679Z,0
2017-08-25T01:20:15.136Z,0
2017-08-25T01:20:55.591Z,0
2017-08-25T01:21:36.046Z,0
2017-08-25T01:22:16.510Z,0
2017-08-25T01:22:56.969Z,0
2017-08-25T01:23:37.427Z,0
2017-08-25T01:24:17.883Z,0
2017-08-25T01:24:58.338Z,0
2017-08-25T01:25:38.790Z,0
2017-08-25T01:26:19.254Z,0
2017-08-25T01:26:59.710Z,0
2017-08-25T01:27:40.177Z,0
2017-08-25T01:28:20.655Z,0
2017-08-25T01:29:01.098Z,0
2017-08-25T01:29:41.548Z,0
2017-08-25T01:30:22.004Z,0
2017-08-25T01:31:02.462Z,0
2017-08-25T01:31:42.912Z,0
2017-08-25T01:32:23.359Z,0
2017-08-25T01:33:03.812Z,0
2017-08-25T01:33:44.277Z,0
2017-08-25T01:34:24.712Z,0
2017-08-25T01:35:05.248Z,0
2017-08-25T01:35:45.703Z,0
2017-08-25T01:36:26.157Z,0
2017-08-25T01:37:06.605Z,0
2017-08-25T01:37:47.059Z,0
2017-08-25T01:38:27.511Z,0
2017-08-25T01:39:07.963Z,0
2017-08-25T01:39:48.409Z,0
2017-08-25T01:40:28.862Z,0
2017-08-25T01:41:09.318Z,0
2017-08-25T01:41:49.764Z,0
2017-08-25T01:42:30.212Z,0
2017-08-25T01:43:10.667Z,0
2017-08-25T01:43:51.126Z,0
2017-08-25T01:44:31.570Z,0
2017-08-25T01:45:12.030Z,0
2017-08-25T01:45:52.478Z,0
2017-08-25T01:46:32.932Z,0
2017-08-25T01:47:13.397Z,0
2017-08-25T01:47:53.857Z,0
2017-08-25T01:48:34.312Z,0
2017-08-25T01:49:14.797Z,0
2017-08-25T01:49:55.253Z,0
2017-08-25T01:50:35.712Z,0
2017-08-25T01:51:16.165Z,0
2017-08-25T01:53:34.492Z,0
2017-08-25T01:54:14.934Z,0
2017-08-25T01:54:55.408Z,0
2017-08-25T01:55:35.842Z,0
2017-08-25T01:56:16.295Z,0
2017-08-25T01:56:56.740Z,0
2017-08-25T01:57:37.201Z,0
2017-08-25T01:58:17.666Z,0
2017-08-25T01:58:58.117Z,0
2017-08-25T01:59:38.574Z,0
2017-08-25T02:00:19.024Z,0
2017-08-25T02:00:59.487Z,0
2017-08-25T02:01:39.946Z,0
2017-08-25T02:02:20.450Z,0
2017-08-25T02:03:00.902Z,0
2017-08-25T02:03:41.354Z,0
2017-08-25T02:04:21.811Z,0
2017-08-25T02:05:02.269Z,0
2017-08-25T02:05:42.730Z,0
2017-08-25T02:06:23.191Z,0
2017-08-25T02:07:03.634Z,0
2017-08-25T02:07:44.090Z,0
2017-08-25T02:08:24.545Z,0
2017-08-25T02:09:04.991Z,0
2017-08-25T02:09:45.438Z,0
2017-08-25T02:10:25.906Z,0
2017-08-25T02:11:06.358Z,0
2017-08-25T02:11:46.813Z,0
2017-08-25T02:12:27.260Z,0
2017-08-25T02:13:07.729Z,0
2017-08-25T02:13:48.182Z,0
2017-08-25T02:14:28.633Z,0
2017-08-25T02:15:09.088Z,0
2017-08-25T02:15:49.551Z,0
2017-08-25T02:16:30.011Z,0
2017-08-25T02:17:10.466Z,0
2017-08-25T02:17:50.910Z,0
2017-08-25T02:18:31.369Z,0
2017-08-25T02:19:11.836Z,0
2017-08-25T02:19:52.284Z,0
2017-08-25T02:20:32.735Z,0
2017-08-25T02:21:13.186Z,0
2017-08-25T02:21:53.642Z,0
2017-08-25T02:22:34.087Z,0
2017-08-25T02:23:14.544Z,0
2017-08-25T02:23:55.010Z,0
2017-08-25T02:24:35.446Z,0
2017-08-25T02:25:15.906Z,0
2017-08-25T02:25:56.361Z,0
2017-08-25T02:26:36.812Z,0
2017-08-25T02:27:17.263Z,0
2017-08-25T02:27:57.716Z,0
2017-08-25T02:28:38.172Z,0
2017-08-25T02:29:18.619Z,0
2017-08-25T02:29:59.069Z,0
2017-08-25T02:30:39.530Z,0
2017-08-25T02:31:19.988Z,0
2017-08-25T02:32:00.442Z,0
2017-08-25T02:32:40.897Z,0
2017-08-25T02:33:21.352Z,0
2017-08-25T02:34:01.805Z,0
2017-08-25T02:34:42.275Z,0
2017-08-25T02:35:22.723Z,0
2017-08-25T02:36:03.175Z,0
2017-08-25T02:36:43.631Z,0
2017-08-25T02:37:24.087Z,0
2017-08-25T02:38:04.542Z,0
2017-08-25T02:38:44.993Z,0
2017-08-25T02:39:25.448Z,0
2017-08-25T02:40:05.901Z,0
2017-08-25T02:40:46.355Z,0
2017-08-25T02:41:26.810Z,0
2017-08-25T02:42:07.275Z,0
2017-08-25T02:42:47.724Z,0
2017-08-25T02:43:28.205Z,0
2017-08-25T02:44:08.629Z,0
2017-08-25T02:44:49.100Z,0
2017-08-25T02:45:29.550Z,0
2017-08-25T02:46:10.005Z,0
2017-08-25T02:46:50.464Z,0
2017-08-25T02:47:30.916Z,0
2017-08-25T02:48:11.368Z,0
2017-08-25T02:48:51.826Z,0
2017-08-25T02:49:32.270Z,0
2017-08-25T02:50:12.756Z,0
2017-08-25T02:50:53.206Z,0
2017-08-25T02:51:33.661Z,0
2017-08-25T02:52:14.114Z,0
2017-08-25T02:52:54.575Z,0
2017-08-25T02:53:35.025Z,0
2017-08-25T02:56:03.036Z,0
2017-08-25T02:56:43.484Z,0
2017-08-25T02:57:23.944Z,0
2017-08-25T02:58:04.395Z,0
2017-08-25T02:58:44.854Z,0
2017-08-25T02:59:25.310Z,0
2017-08-25T03:00:05.761Z,0
2017-08-25T03:00:46.222Z,0
2017-08-25T03:01:26.697Z,0
2017-08-25T03:02:07.178Z,0
2017-08-25T03:02:47.602Z,0
2017-08-25T03:03:28.052Z,0
2017-08-25T03:04:08.505Z,0
2017-08-25T03:04:48.970Z,0
2017-08-25T03:05:29.412Z,0
2017-08-25T03:06:09.866Z,0
2017-08-25T03:06:50.316Z,0
2017-08-25T03:07:30.768Z,0
2017-08-25T03:08:11.223Z,0
2017-08-25T03:08:51.679Z,0
2017-08-25T03:09:32.131Z,0
2017-08-25T03:10:12.580Z,0
2017-08-25T03:10:53.026Z,0
2017-08-25T03:11:33.476Z,0
2017-08-25T03:12:13.936Z,0
2017-08-25T03:12:54.394Z,0
2017-08-25T03:13:34.849Z,0
2017-08-25T03:14:15.322Z,0
2017-08-25T03:14:55.795Z,0
2017-08-25T03:15:36.244Z,0
2017-08-25T03:16:16.674Z,0
2017-08-25T03:16:57.145Z,0
2017-08-25T03:17:37.572Z,0
2017-08-25T03:18:18.029Z,0
2017-08-25T03:18:58.467Z,0
2017-08-25T03:19:38.921Z,0
2017-08-25T03:20:19.366Z,0
2017-08-25T03:20:59.830Z,0
2017-08-25T03:21:40.281Z,0
2017-08-25T03:22:20.721Z,0
2017-08-25T03:23:01.176Z,0
2017-08-25T03:23:41.642Z,0
2017-08-25T03:24:22.094Z,0
2017-08-25T03:25:02.542Z,0
2017-08-25T03:25:43.005Z,0
2017-08-25T03:26:23.446Z,0
2017-08-25T03:27:03.897Z,0
2017-08-25T03:27:44.347Z,0
2017-08-25T03:28:24.810Z,0
2017-08-25T03:29:05.257Z,0
2017-08-25T03:29:45.713Z,0
2017-08-25T03:30:26.177Z,0
2017-08-25T03:31:06.627Z,0
2017-08-25T03:31:47.084Z,0
2017-08-25T03:32:27.542Z,0
2017-08-25T03:33:07.996Z,0
2017-08-25T03:33:48.446Z,0
2017-08-25T03:34:28.911Z,0
2017-08-25T03:35:09.369Z,0
2017-08-25T03:35:49.814Z,0
2017-08-25T03:36:30.286Z,0
2017-08-25T03:37:10.739Z,0
2017-08-25T03:37:51.196Z,0
2017-08-25T03:38:31.662Z,0
2017-08-25T03:39:12.120Z,0
2017-08-25T03:39:52.576Z,0
2017-08-25T03:40:33.035Z,0
2017-08-25T03:41:13.506Z,0
2017-08-25T03:41:53.966Z,0
2017-08-25T03:42:34.421Z,0
2017-08-25T03:43:14.876Z,0
2017-08-25T03:43:55.347Z,0
2017-08-25T03:44:35.799Z,0
2017-08-25T03:45:16.255Z,0
2017-08-25T03:45:56.705Z,0
2017-08-25T03:46:37.159Z,0
2017-08-25T03:47:17.637Z,0
2017-08-25T03:47:58.073Z,0
2017-08-25T03:48:38.536Z,0
2017-08-25T03:49:18.985Z,0
2017-08-25T03:49:59.438Z,0
2017-08-25T03:50:39.889Z,0
2017-08-25T03:51:20.342Z,0
2017-08-25T03:52:00.801Z,0
2017-08-25T03:52:41.255Z,0
2017-08-25T03:53:21.711Z,0
2017-08-25T03:54:02.152Z,0
2017-08-25T03:54:42.594Z,0
2017-08-25T03:55:23.048Z,0
2017-08-25T03:56:03.501Z,0
2017-08-25T03:56:43.946Z,0
2017-08-25T03:57:24.408Z,0
2017-08-25T03:58:04.859Z,0
2017-08-25T03:58:45.323Z,0
2017-08-25T03:59:25.812Z,0
2017-08-25T04:00:06.257Z,0
2017-08-25T04:00:46.695Z,0
2017-08-25T04:01:27.172Z,0
2017-08-25T04:03:45.150Z,0
2017-08-25T04:04:25.603Z,0
2017-08-25T04:05:06.063Z,0
2017-08-25T04:05:46.518Z,0
2017-08-25T04:06:26.978Z,0
2017-08-25T04:07:07.438Z,0
2017-08-25T04:07:47.917Z,0
2017-08-25T04:08:28.372Z,0
2017-08-25T04:09:08.813Z,0
2017-08-25T04:09:49.254Z,0
2017-08-25T04:10:29.689Z,0
2017-08-25T04:11:10.107Z,0
2017-08-25T04:11:50.536Z,0
2017-08-25T04:12:30.963Z,0
2017-08-25T04:13:11.364Z,0
2017-08-25T04:13:51.811Z,0
2017-08-25T04:14:32.191Z,0
2017-08-25T04:15:12.612Z,0
2017-08-25T04:15:53.024Z,0
2017-08-25T04:16:33.407Z,0
2017-08-25T04:17:13.825Z,0
2017-08-25T04:17:54.288Z,0
2017-08-25T04:18:34.662Z,0
2017-08-25T04:19:15.091Z,0
2017-08-25T04:19:55.500Z,0
2017-08-25T04:20:35.956Z,0
2017-08-25T04:21:16.350Z,0
2017-08-25T04:21:56.806Z,0
2017-08-25T04:22:37.260Z,0
2017-08-25T04:23:17.707Z,0
2017-08-25T04:23:58.243Z,0
2017-08-25T04:24:38.608Z,0
2017-08-25T04:25:19.072Z,0
2017-08-25T04:25:59.526Z,0
2017-08-25T04:26:39.982Z,0
2017-08-25T04:27:20.411Z,0
2017-08-25T04:28:00.864Z,0
2017-08-25T04:28:41.311Z,0
2017-08-25T04:29:21.771Z,0
2017-08-25T04:30:02.208Z,0
2017-08-25T04:30:42.670Z,0
2017-08-25T04:31:23.125Z,0
2017-08-25T04:32:03.625Z,0
2017-08-25T04:32:44.084Z,0
2017-08-25T04:33:24.543Z,0
2017-08-25T04:34:05.005Z,0
2017-08-25T04:34:45.454Z,0
2017-08-25T04:35:25.910Z,0
2017-08-25T04:36:06.360Z,0
2017-08-25T04:36:46.820Z,0
2017-08-25T04:37:27.293Z,0
2017-08-25T04:38:07.735Z,0
2017-08-25T04:38:48.188Z,0
2017-08-25T04:39:28.642Z,0
2017-08-25T04:40:09.123Z,0
2017-08-25T04:40:49.578Z,0
2017-08-25T04:41:30.059Z,0
2017-08-25T04:42:10.511Z,0
2017-08-25T04:42:50.965Z,0
2017-08-25T04:43:31.434Z,0
2017-08-25T04:44:11.888Z,0
2017-08-25T04:44:52.342Z,0
2017-08-25T04:45:32.798Z,0
2017-08-25T04:46:13.252Z,0
2017-08-25T04:46:53.710Z,0
2017-08-25T04:47:34.162Z,0
2017-08-25T04:48:14.765Z,0
2017-08-25T04:48:55.275Z,0
2017-08-25T04:49:35.890Z,0
2017-08-25T04:50:16.332Z,0
2017-08-25T04:50:56.788Z,0
2017-08-25T04:51:37.248Z,0
2017-08-25T04:54:05.181Z,0
2017-08-25T04:54:45.630Z,0
2017-08-25T04:55:26.090Z,0
2017-08-25T04:56:06.549Z,0
2017-08-25T04:56:47.009Z,0
2017-08-25T04:57:27.463Z,0
2017-08-25T04:58:07.931Z,0
2017-08-25T04:58:48.393Z,0
2017-08-25T04:59:28.849Z,0
2017-08-25T05:00:09.301Z,0
2017-08-25T05:00:49.758Z,0
2017-08-25T05:01:30.213Z,0
2017-08-25T05:02:10.676Z,0
2017-08-25T05:02:51.120Z,0
2017-08-25T05:03:31.575Z,0
2017-08-25T05:04:12.031Z,0
2017-08-25T05:04:52.486Z,0
2017-08-25T05:05:32.944Z,0
2017-08-25T05:06:13.402Z,0
2017-08-25T05:08:51.508Z,0
2017-08-25T05:09:31.961Z,0
2017-08-25T05:10:12.418Z,0
2017-08-25T05:10:52.872Z,0
2017-08-25T05:11:33.327Z,0
2017-08-25T05:12:13.787Z,0
2017-08-25T05:12:54.233Z,0
2017-08-25T05:13:34.682Z,0
2017-08-25T05:14:15.135Z,0
2017-08-25T05:14:55.588Z,0
2017-08-25T05:15:36.040Z,0
2017-08-25T05:16:18.274Z,0
2017-08-25T05:16:58.738Z,0
2017-08-25T05:17:39.192Z,0
2017-08-25T05:18:19.661Z,0
2017-08-25T05:19:00.118Z,0
2017-08-25T05:19:40.572Z,0
2017-08-25T05:20:21.020Z,0
2017-08-25T05:21:01.475Z,0
2017-08-25T05:21:41.936Z,0
2017-08-25T05:22:22.382Z,0
2017-08-25T05:23:02.864Z,0
2017-08-25T05:23:43.287Z,0
2017-08-25T05:24:23.737Z,0
2017-08-25T05:25:04.192Z,0
2017-08-25T05:25:44.650Z,0
2017-08-25T05:26:25.121Z,0
2017-08-25T05:27:05.611Z,0
2017-08-25T05:27:46.065Z,0
2017-08-25T05:28:26.526Z,0
2017-08-25T05:29:06.971Z,0
2017-08-25T05:29:47.429Z,0
2017-08-25T05:30:27.889Z,0
2017-08-25T05:31:08.336Z,0
2017-08-25T05:31:48.791Z,0
2017-08-25T05:32:29.243Z,0
2017-08-25T05:33:09.695Z,0
2017-08-25T05:33:50.145Z,0
2017-08-25T05:34:30.604Z,0
2017-08-25T05:35:11.057Z,0
2017-08-25T05:35:51.513Z,0
2017-08-25T05:36:31.973Z,0
2017-08-25T05:37:12.429Z,5
2017-08-25T05:37:52.881Z,5
2017-08-25T05:38:33.332Z,5
2017-08-25T05:39:13.783Z,5
2017-08-25T05:39:54.239Z,5
2017-08-25T05:40:34.694Z,5
2017-08-25T05:41:15.151Z,5
2017-08-25T05:41:55.607Z,5
2017-08-25T05:42:36.054Z,5
2017-08-25T05:43:16.522Z,5
2017-08-25T05:43:56.972Z,5
2017-08-25T05:44:37.421Z,5
2017-08-25T05:45:17.876Z,5
2017-08-25T05:45:58.333Z,5
2017-08-25T05:46:38.785Z,5
2017-08-25T05:47:19.260Z,5
2017-08-25T05:47:59.702Z,5
2017-08-25T05:48:40.156Z,5
2017-08-25T05:49:20.599Z,5
2017-08-25T05:50:01.056Z,5
2017-08-25T05:50:41.520Z,5
2017-08-25T05:51:21.977Z,5
2017-08-25T05:52:02.437Z,10
2017-08-25T05:52:42.890Z,10
2017-08-25T05:53:23.347Z,10
2017-08-25T05:54:03.805Z,10
2017-08-25T05:54:44.257Z,10
2017-08-25T05:55:24.710Z,10
2017-08-25T05:56:05.163Z,10
2017-08-25T05:56:45.641Z,10
2017-08-25T05:57:26.092Z,10
2017-08-25T05:58:06.577Z,10
2017-08-25T05:58:47.009Z,10
2017-08-25T05:59:27.494Z,10
2017-08-25T06:00:07.962Z,10
2017-08-25T06:00:48.426Z,10
2017-08-25T06:01:28.879Z,10
2017-08-25T06:02:09.330Z,15
2017-08-25T06:02:49.788Z,15
2017-08-25T06:03:30.244Z,15
2017-08-25T06:04:10.694Z,15
2017-08-25T06:04:51.167Z,15
2017-08-25T06:05:31.610Z,15
2017-08-25T06:06:12.071Z,15
2017-08-25T06:06:52.524Z,15
2017-08-25T06:07:32.964Z,10
2017-08-25T06:08:13.423Z,15
2017-08-25T06:08:53.873Z,10
2017-08-25T06:09:34.323Z,10
2017-08-25T06:10:14.773Z,10
2017-08-25T06:10:55.345Z,10
2017-08-25T06:11:35.708Z,10
2017-08-25T06:12:16.161Z,10
2017-08-25T06:12:56.612Z,10
2017-08-25T06:13:37.065Z,10
2017-08-25T06:14:17.522Z,10
2017-08-25T06:14:57.976Z,15
2017-08-25T06:15:38.428Z,15
2017-08-25T06:16:18.890Z,15
2017-08-25T06:16:59.335Z,15
2017-08-25T06:17:39.808Z,15
2017-08-25T06:18:20.257Z,15
2017-08-25T06:19:00.702Z,15
2017-08-25T06:19:41.153Z,15
2017-08-25T06:20:21.613Z,15
2017-08-25T06:21:02.070Z,15
2017-08-25T06:21:42.528Z,15
2017-08-25T06:22:22.971Z,20
2017-08-25T06:23:03.419Z,20
2017-08-25T06:23:43.873Z,20
2017-08-25T06:24:24.332Z,20
2017-08-25T06:25:04.785Z,20
2017-08-25T06:25:45.228Z,20
2017-08-25T06:26:25.704Z,20
2017-08-25T06:27:06.130Z,20
2017-08-25T06:27:46.574Z,20
2017-08-25T06:28:27.033Z,20
2017-08-25T06:29:07.488Z,20
2017-08-25T06:29:47.935Z,20
2017-08-25T06:30:28.387Z,20
2017-08-25T06:31:08.844Z,20
2017-08-25T06:31:49.302Z,20
2017-08-25T06:32:29.750Z,20
2017-08-25T06:33:10.374Z,20
2017-08-25T06:33:50.829Z,20
2017-08-25T06:34:31.282Z,20
2017-08-25T06:35:11.736Z,25
2017-08-25T06:35:52.191Z,25
2017-08-25T06:36:32.639Z,25
2017-08-25T06:37:13.101Z,25
2017-08-25T06:37:53.545Z,25
2017-08-25T06:38:33.984Z,25
2017-08-25T06:39:14.436Z,25
2017-08-25T06:39:54.886Z,25
2017-08-25T06:40:35.345Z,25
2017-08-25T06:41:15.802Z,25
2017-08-25T06:41:56.259Z,30
2017-08-25T06:42:36.718Z,30
2017-08-25T06:43:17.173Z,30
2017-08-25T06:43:57.628Z,30
2017-08-25T06:44:38.082Z,40
2017-08-25T06:45:18.531Z,35
2017-08-25T06:45:58.979Z,40
2017-08-25T06:46:39.440Z,40
2017-08-25T06:47:19.898Z,40
2017-08-25T06:48:00.334Z,35
2017-08-25T06:48:40.790Z,35
2017-08-25T06:49:21.252Z,45
2017-08-25T06:50:01.711Z,45
2017-08-25T06:50:42.156Z,50
2017-08-25T06:51:22.615Z,50
2017-08-25T06:52:03.068Z,50
2017-08-25T06:52:43.529Z,50
2017-08-25T06:53:23.982Z,50
2017-08-25T06:54:04.434Z,45
2017-08-25T06:54:44.893Z,45
2017-08-25T06:55:25.345Z,35
2017-08-25T06:56:06.151Z,35
2017-08-25T06:56:46.600Z,35
2017-08-25T06:57:27.063Z,35
2017-08-25T06:58:07.527Z,35
2017-08-25T06:58:47.969Z,35
2017-08-25T06:59:28.421Z,40
2017-08-25T07:00:08.876Z,35
2017-08-25T07:00:49.325Z,40
2017-08-25T07:01:29.789Z,35
2017-08-25T07:02:10.247Z,35
2017-08-25T07:02:50.692Z,35
2017-08-25T07:03:31.149Z,35
2017-08-25T07:04:11.606Z,40
2017-08-25T07:04:52.070Z,35
2017-08-25T07:05:32.614Z,35
2017-08-25T07:06:12.991Z,35
2017-08-25T07:06:53.450Z,40
2017-08-25T07:07:33.899Z,40
2017-08-25T07:08:14.360Z,55
2017-08-25T07:08:54.810Z,40
2017-08-25T07:09:35.280Z,40
2017-08-25T07:10:15.739Z,40
2017-08-25T07:10:56.199Z,40
2017-08-25T07:11:36.656Z,35
2017-08-25T07:12:17.114Z,35
2017-08-25T07:12:57.585Z,40
2017-08-25T07:13:38.039Z,40
2017-08-25T07:14:19.236Z,40
2017-08-25T07:14:59.695Z,45
2017-08-25T07:15:40.154Z,50
2017-08-25T07:16:20.606Z,55
2017-08-25T07:17:01.038Z,40
2017-08-25T07:17:41.483Z,50
2017-08-25T07:18:21.926Z,40
2017-08-25T07:19:02.384Z,40
2017-08-25T07:19:42.861Z,40
2017-08-25T07:20:23.310Z,45
2017-08-25T07:21:03.761Z,45
2017-08-25T07:21:44.207Z,65
2017-08-25T07:22:24.659Z,55
2017-08-25T07:23:05.111Z,45
2017-08-25T07:23:45.577Z,45
2017-08-25T07:24:26.028Z,45
2017-08-25T07:25:06.482Z,45
2017-08-25T07:25:46.952Z,50
2017-08-25T07:26:27.398Z,50
2017-08-25T07:27:07.849Z,55
2017-08-25T07:27:48.306Z,65
2017-08-25T07:28:28.753Z,65
2017-08-25T07:29:09.206Z,60
2017-08-25T07:29:49.659Z,60
2017-08-25T07:30:30.108Z,50
2017-08-25T07:31:10.555Z,50
2017-08-25T07:31:51.033Z,50
2017-08-25T07:32:31.464Z,50
2017-08-25T07:33:11.912Z,50
2017-08-25T07:33:52.363Z,50
2017-08-25T07:34:32.804Z,45
2017-08-25T07:35:13.274Z,45
2017-08-25T07:35:53.722Z,45
2017-08-25T07:36:34.172Z,40
2017-08-25T07:37:14.624Z,40
2017-08-25T07:37:55.093Z,40
2017-08-25T07:38:35.580Z,40
2017-08-25T07:39:16.028Z,40
2017-08-25T07:39:56.476Z,40
2017-08-25T07:40:37.785Z,40
2017-08-25T07:41:18.048Z,40
2017-08-25T07:41:58.814Z,40
2017-08-25T07:42:39.910Z,40
2017-08-25T07:43:20.456Z,40
2017-08-25T07:44:01.009Z,40
2017-08-25T07:44:41.450Z,40
2017-08-25T07:45:21.892Z,40
2017-08-25T07:46:02.346Z,40
2017-08-25T07:46:42.802Z,40
2017-08-25T07:47:23.261Z,40
2017-08-25T07:48:03.770Z,40
2017-08-25T07:48:44.221Z,40
2017-08-25T07:49:24.767Z,45
2017-08-25T07:50:05.291Z,45
2017-08-25T07:50:45.755Z,45
2017-08-25T07:51:26.205Z,45
2017-08-25T07:52:06.672Z,45
2017-08-25T07:52:47.120Z,50
2017-08-25T07:53:27.588Z,50
2017-08-25T07:54:08.176Z,50
2017-08-25T07:54:48.618Z,50
2017-08-25T07:55:29.065Z,50
2017-08-25T07:56:09.818Z,50
2017-08-25T07:56:50.280Z,55
2017-08-25T07:57:30.762Z,50
2017-08-25T07:58:11.209Z,50
2017-08-25T07:58:51.726Z,50
2017-08-25T07:59:32.178Z,50
2017-08-25T08:00:12.629Z,50
2017-08-25T08:00:53.085Z,45
2017-08-25T08:01:33.541Z,45
2017-08-25T08:02:13.996Z,45
2017-08-25T08:02:54.572Z,45
2017-08-25T08:03:35.363Z,45
2017-08-25T08:04:15.823Z,55
2017-08-25T08:04:56.281Z,45
2017-08-25T08:05:36.737Z,50
2017-08-25T08:06:17.193Z,60
2017-08-25T08:06:57.656Z,65
2017-08-25T08:07:38.115Z,70
2017-08-25T08:08:18.622Z,65
2017-08-25T08:08:59.077Z,80
2017-08-25T08:09:39.692Z,55
2017-08-25T08:10:20.586Z,55
2017-08-25T08:11:01.025Z,95
2017-08-25T08:11:41.476Z,65
2017-08-25T08:12:21.932Z,75
2017-08-25T08:13:02.416Z,85
2017-08-25T08:13:42.874Z,80
2017-08-25T08:14:23.326Z,100
2017-08-25T08:15:03.781Z,100
2017-08-25T08:15:44.245Z,80
2017-08-25T08:16:24.706Z,85
2017-08-25T08:17:05.268Z,90
2017-08-25T08:17:45.713Z,70
2017-08-25T08:18:26.189Z,60
2017-08-25T08:19:06.644Z,55
2017-08-25T08:19:47.158Z,60
2017-08-25T08:20:27.614Z,55
2017-08-25T08:21:08.174Z,55
2017-08-25T08:21:48.668Z,60
2017-08-25T08:22:29.140Z,60
2017-08-25T08:23:09.769Z,55
2017-08-25T08:23:51.582Z,90
2017-08-25T08:24:31.434Z,50
2017-08-25T08:25:11.887Z,45
2017-08-25T08:25:52.345Z,45
2017-08-25T08:26:33.667Z,40
2017-08-25T08:27:14.144Z,45
2017-08-25T08:27:54.766Z,50
2017-08-25T08:28:35.241Z,50
2017-08-25T08:29:15.698Z,45
2017-08-25T08:29:56.149Z,65
2017-08-25T08:30:36.598Z,75
2017-08-25T08:31:17.600Z,50
2017-08-25T08:31:57.824Z,100
2017-08-25T08:32:38.363Z,105
2017-08-25T08:33:18.825Z,50
2017-08-25T08:33:59.277Z,45
2017-08-25T08:34:39.722Z,50
2017-08-25T08:35:20.170Z,55
2017-08-25T08:37:58.346Z,50
2017-08-25T08:38:38.804Z,55
2017-08-25T08:39:19.262Z,60
2017-08-25T08:39:59.715Z,60
2017-08-25T08:40:40.215Z,70
2017-08-25T08:41:20.675Z,65
2017-08-25T08:42:01.139Z,85
2017-08-25T08:42:41.591Z,80
2017-08-25T08:43:22.061Z,80
2017-08-25T08:44:02.521Z,75
2017-08-25T08:44:42.963Z,70
2017-08-25T08:45:23.415Z,75
2017-08-25T08:46:03.870Z,85
2017-08-25T08:46:44.327Z,130
2017-08-25T08:47:24.787Z,80
2017-08-25T08:48:05.237Z,80
2017-08-25T08:48:45.702Z,80
2017-08-25T08:49:26.179Z,105
2017-08-25T08:50:06.626Z,105
2017-08-25T08:50:47.072Z,80
2017-08-25T08:51:27.519Z,85
2017-08-25T08:52:07.967Z,85
2017-08-25T08:52:48.422Z,90
2017-08-25T08:53:28.886Z,145
2017-08-25T08:54:09.345Z,85
2017-08-25T08:54:49.795Z,85
2017-08-25T08:55:30.272Z,85
2017-08-25T08:56:10.720Z,130
2017-08-25T08:56:51.166Z,85
2017-08-25T08:57:31.621Z,85
2017-08-25T08:58:12.067Z,90
2017-08-25T08:58:52.510Z,110
2017-08-25T08:59:32.942Z,125
2017-08-25T09:00:13.384Z,110
2017-08-25T09:00:53.833Z,90
2017-08-25T09:01:34.287Z,90
2017-08-25T09:02:14.730Z,95
2017-08-25T09:02:55.178Z,85
2017-08-25T09:03:35.646Z,80
2017-08-25T09:04:16.100Z,105
2017-08-25T09:04:56.558Z,80
2017-08-25T09:05:37.016Z,90
2017-08-25T09:06:17.479Z,80
2017-08-25T09:06:57.932Z,75
2017-08-25T09:07:38.397Z,75
2017-08-25T09:08:18.852Z,75
2017-08-25T09:08:59.296Z,80
2017-08-25T09:09:39.749Z,70
2017-08-25T09:10:20.205Z,80
2017-08-25T09:11:00.725Z,75
2017-08-25T09:11:41.179Z,75
2017-08-25T09:12:21.634Z,75
2017-08-25T09:13:02.102Z,80
2017-08-25T09:13:42.543Z,75
2017-08-25T09:14:22.992Z,105
2017-08-25T09:15:03.447Z,75
2017-08-25T09:15:43.892Z,75
2017-08-25T09:16:24.358Z,75
2017-08-25T09:17:04.813Z,75
2017-08-25T09:17:45.270Z,75
2017-08-25T09:18:25.725Z,75
2017-08-25T09:19:06.189Z,75
2017-08-25T09:19:46.642Z,70
2017-08-25T09:20:27.111Z,70
2017-08-25T09:21:07.563Z,70
2017-08-25T09:21:48.017Z,65
2017-08-25T09:22:28.459Z,70
2017-08-25T09:23:08.914Z,65
2017-08-25T09:23:49.372Z,80
2017-08-25T09:24:29.814Z,85
2017-08-25T09:25:10.264Z,85
2017-08-25T09:25:50.715Z,105
2017-08-25T09:26:31.166Z,90
2017-08-25T09:27:11.628Z,125
2017-08-25T09:27:52.087Z,150
2017-08-25T09:28:32.541Z,135
2017-08-25T09:29:12.999Z,145
2017-08-25T09:29:53.458Z,145
2017-08-25T09:30:33.913Z,145
2017-08-25T09:31:14.364Z,145
2017-08-25T09:31:54.821Z,145
2017-08-25T09:32:35.285Z,145
2017-08-25T09:33:15.732Z,145
2017-08-25T09:33:56.189Z,145
2017-08-25T09:34:36.639Z,140
2017-08-25T09:35:17.107Z,140
2017-08-25T09:35:57.564Z,140
2017-08-25T09:36:38.019Z,140
2017-08-25T09:37:18.474Z,140
2017-08-25T09:37:58.931Z,140
2017-08-25T09:38:39.391Z,145
2017-08-25T09:39:19.850Z,145
2017-08-25T09:40:00.299Z,145
2017-08-25T09:40:40.761Z,145
2017-08-25T09:41:21.222Z,145
2017-08-25T09:42:01.665Z,145
2017-08-25T09:42:42.132Z,145
2017-08-25T09:43:22.583Z,145
2017-08-25T09:44:03.035Z,145
2017-08-25T09:44:43.493Z,145
2017-08-25T09:45:23.968Z,145
2017-08-25T09:46:04.415Z,145
2017-08-25T09:46:44.870Z,145
2017-08-25T09:47:25.319Z,145
2017-08-25T09:48:05.843Z,145
2017-08-25T09:48:46.301Z,145
2017-08-25T09:49:26.769Z,145
2017-08-25T09:50:07.236Z,145
2017-08-25T09:50:47.691Z,145
2017-08-25T09:51:28.146Z,145
2017-08-25T09:52:08.624Z,145
2017-08-25T09:52:49.068Z,145
2017-08-25T09:53:29.522Z,145
2017-08-25T09:54:09.979Z,145
2017-08-25T09:54:50.483Z,145
2017-08-25T09:55:30.918Z,145
2017-08-25T09:56:11.378Z,145
2017-08-25T09:56:51.839Z,150
2017-08-25T09:57:32.287Z,150
2017-08-25T09:58:12.743Z,150
2017-08-25T09:58:53.197Z,150
2017-08-25T09:59:33.651Z,150
2017-08-25T10:00:14.101Z,145